createdAt,value
2023-04-17T00:01:24.315Z,6.60
2023-04-17T00:04:11.404Z,6.60
2023-04-17T00:06:59.380Z,6.50
2023-04-17T00:09:45.318Z,6.40
2023-04-17T00:12:31.254Z,6.40
2023-04-17T00:15:17.228Z,6.40
2023-04-17T00:18:03.370Z,6.40
2023-04-17T00:20:49.114Z,6.30
2023-04-17T00:23:35.581Z,6.20
2023-04-17T00:26:22.079Z,6.10
2023-04-17T00:29:08.292Z,6.10
2023-04-17T00:31:54.193Z,6.00
2023-04-17T00:34:40.514Z,6.10
2023-04-17T00:37:26.361Z,6.10
2023-04-17T00:40:12.930Z,6.00
2023-04-17T00:43:06.589Z,6.00
2023-04-17T00:45:54.168Z,6.00
2023-04-17T00:48:41.029Z,6.00
2023-04-17T00:51:28.023Z,6.10
2023-04-17T00:54:14.722Z,6.10
2023-04-17T00:57:01.545Z,6.20
2023-04-17T00:59:48.411Z,6.20
2023-04-17T01:02:34.976Z,6.30
2023-04-17T01:05:21.134Z,6.30
2023-04-17T01:08:07.477Z,6.30
2023-04-17T01:10:53.684Z,6.40
2023-04-17T01:13:47.214Z,6.40
2023-04-17T01:16:33.776Z,6.50
2023-04-17T01:19:20.365Z,6.50
2023-04-17T01:22:06.601Z,6.50
2023-04-17T01:24:52.766Z,6.60
2023-04-17T01:27:39.195Z,6.60
2023-04-17T01:30:25.813Z,6.60
2023-04-17T01:33:24.374Z,6.70
2023-04-17T01:36:10.538Z,6.70
2023-04-17T01:38:56.864Z,6.70
2023-04-17T01:41:42.919Z,6.60
2023-04-17T01:44:28.954Z,6.60
2023-04-17T01:47:14.938Z,6.60
2023-04-17T01:50:01.162Z,6.50
2023-04-17T01:52:47.175Z,6.50
2023-04-17T01:55:33.061Z,6.60
2023-04-17T01:58:19.012Z,6.60
2023-04-17T02:01:06.159Z,6.80
2023-04-17T02:03:52.595Z,6.90
2023-04-17T02:06:39.564Z,7.00
2023-04-17T02:09:25.436Z,7.00
2023-04-17T02:12:11.415Z,7.00
2023-04-17T02:15:01.184Z,7.10
2023-04-17T02:17:47.422Z,6.90
2023-04-17T02:20:34.151Z,7.00
2023-04-17T02:23:20.357Z,7.00
2023-04-17T02:26:06.625Z,7.10
2023-04-17T02:28:52.980Z,7.10
2023-04-17T02:31:41.463Z,7.10
2023-04-17T02:34:31.005Z,7.00
2023-04-17T02:37:17.148Z,7.00
2023-04-17T02:40:07.102Z,7.00
2023-04-17T02:42:53.104Z,6.90
2023-04-17T02:45:39.035Z,6.90
2023-04-17T02:48:24.845Z,6.90
2023-04-17T02:51:11.722Z,6.90
2023-04-17T02:53:57.731Z,6.90
2023-04-17T02:56:44.047Z,6.80
2023-04-17T02:59:30.043Z,6.70
2023-04-17T03:02:16.606Z,6.70
2023-04-17T03:05:04.237Z,6.70
2023-04-17T03:07:51.564Z,6.60
2023-04-17T03:10:37.874Z,6.60
2023-04-17T03:13:24.350Z,6.60
2023-04-17T03:16:11.906Z,6.70
2023-04-17T03:18:58.320Z,6.70
2023-04-17T03:21:44.335Z,6.70
2023-04-17T03:24:31.588Z,6.70
2023-04-17T03:27:24.310Z,6.70
2023-04-17T03:30:12.898Z,6.80
2023-04-17T03:33:01.667Z,6.80
2023-04-17T03:35:49.982Z,6.90
2023-04-17T03:38:36.729Z,7.00
2023-04-17T03:41:24.998Z,7.10
2023-04-17T03:44:12.536Z,7.20
2023-04-17T03:46:58.719Z,7.30
2023-04-17T03:49:44.811Z,7.30
2023-04-17T03:52:31.848Z,7.40
2023-04-17T03:55:19.340Z,7.40
2023-04-17T03:58:07.867Z,7.50
2023-04-17T04:00:55.624Z,7.50
2023-04-17T04:03:45.643Z,7.50
2023-04-17T04:06:32.715Z,7.50
2023-04-17T04:09:19.845Z,7.60
2023-04-17T04:12:06.786Z,7.60
2023-04-17T04:14:58.505Z,7.60
2023-04-17T04:17:46.050Z,7.60
2023-04-17T04:20:32.690Z,7.60
2023-04-17T04:23:30.766Z,7.60
2023-04-17T04:26:17.199Z,7.60
2023-04-17T04:29:11.871Z,7.60
2023-04-17T04:32:18.794Z,7.50
2023-04-17T04:35:06.792Z,7.50
2023-04-17T04:37:54.723Z,7.60
2023-04-17T04:40:43.822Z,7.70
2023-04-17T04:43:29.812Z,7.70
2023-04-17T04:46:16.797Z,7.60
2023-04-17T04:49:05.452Z,7.50
2023-04-17T04:51:51.240Z,7.40
2023-04-17T04:54:37.233Z,7.40
2023-04-17T04:57:23.717Z,7.30
2023-04-17T05:00:14.347Z,7.20
2023-04-17T05:03:05.443Z,7.20
2023-04-17T05:05:51.626Z,7.30
2023-04-17T05:08:40.882Z,7.40
2023-04-17T05:11:33.377Z,7.50
2023-04-17T05:14:20.808Z,7.60
2023-04-17T05:17:08.415Z,7.70
2023-04-17T05:19:55.048Z,7.70
2023-04-17T05:22:42.838Z,7.70
2023-04-17T05:25:32.233Z,7.80
2023-04-17T05:28:20.618Z,7.80
2023-04-17T05:31:09.766Z,7.80
2023-04-17T05:34:00.388Z,7.90
2023-04-17T05:36:47.398Z,7.80
2023-04-17T05:39:34.362Z,7.80
2023-04-17T05:42:21.474Z,7.80
2023-04-17T05:45:08.023Z,7.90
2023-04-17T05:47:53.963Z,7.90
2023-04-17T05:50:40.512Z,8.00
2023-04-17T05:53:27.424Z,8.00
2023-04-17T05:56:17.117Z,8.10
2023-04-17T05:59:03.201Z,8.20
2023-04-17T06:01:50.007Z,8.20
2023-04-17T06:04:41.448Z,8.30
2023-04-17T06:07:28.170Z,8.40
2023-04-17T06:10:14.337Z,8.40
2023-04-17T06:13:00.699Z,8.40
2023-04-17T06:15:49.567Z,8.40
2023-04-17T06:18:35.990Z,8.40
2023-04-17T06:21:21.961Z,8.50
2023-04-17T06:24:08.629Z,8.50
2023-04-17T06:26:54.691Z,8.60
2023-04-17T06:29:41.104Z,8.60
2023-04-17T06:32:27.442Z,8.70
2023-04-17T06:35:13.671Z,8.70
2023-04-17T06:38:07.227Z,8.70
2023-04-17T06:40:53.260Z,8.70
2023-04-17T06:43:40.100Z,8.80
2023-04-17T06:46:34.493Z,9.00
2023-04-17T06:49:23.359Z,8.90
2023-04-17T06:52:09.748Z,9.00
2023-04-17T06:54:56.861Z,8.90
2023-04-17T06:57:43.176Z,8.80
2023-04-17T07:00:29.066Z,8.80
2023-04-17T07:03:16.675Z,8.80
2023-04-17T07:06:03.367Z,8.90
2023-04-17T07:08:49.581Z,8.90
2023-04-17T07:11:35.938Z,9.00
2023-04-17T07:14:22.991Z,8.90
2023-04-17T07:17:09.003Z,8.90
2023-04-17T07:19:55.162Z,8.90
2023-04-17T07:22:41.530Z,9.10
2023-04-17T07:25:27.570Z,9.20
2023-04-17T07:28:14.415Z,9.30
2023-04-17T07:31:00.651Z,9.30
2023-04-17T07:33:46.859Z,9.40
2023-04-17T07:36:32.885Z,9.30
2023-04-17T07:39:19.918Z,9.30
2023-04-17T07:42:08.867Z,9.40
2023-04-17T07:44:55.869Z,9.40
2023-04-17T07:47:41.920Z,9.40
2023-04-17T07:50:28.264Z,9.40
2023-04-17T07:53:14.604Z,9.40
2023-04-17T07:56:00.552Z,9.40
2023-04-17T07:58:46.537Z,9.50
2023-04-17T08:01:33.858Z,9.50
2023-04-17T08:04:20.713Z,9.60
2023-04-17T08:07:10.545Z,9.70
2023-04-17T08:09:57.279Z,9.80
2023-04-17T08:12:43.363Z,9.80
2023-04-17T08:15:29.324Z,9.70
2023-04-17T08:18:15.564Z,9.60
2023-04-17T08:21:01.730Z,9.50
2023-04-17T08:23:48.185Z,9.40
2023-04-17T08:26:34.626Z,9.40
2023-04-17T08:29:20.833Z,9.30
2023-04-17T08:32:14.508Z,9.40
2023-04-17T08:35:01.584Z,9.30
2023-04-17T08:37:47.909Z,9.30
2023-04-17T08:40:34.079Z,9.20
2023-04-17T08:43:21.393Z,9.20
2023-04-17T08:46:07.670Z,9.20
2023-04-17T08:48:54.950Z,9.20
2023-04-17T08:51:42.750Z,9.20
2023-04-17T08:54:28.610Z,9.40
2023-04-17T08:57:14.820Z,9.40
2023-04-17T09:00:08.189Z,9.60
2023-04-17T09:02:56.170Z,9.80
2023-04-17T09:05:45.885Z,10.00
2023-04-17T09:08:32.039Z,10.20
2023-04-17T09:11:17.915Z,10.30
2023-04-17T09:14:03.906Z,10.50
2023-04-17T09:16:55.953Z,10.70
2023-04-17T09:20:06.192Z,10.80
2023-04-17T09:23:05.454Z,11.00
2023-04-17T09:26:24.948Z,11.30
2023-04-17T09:29:12.563Z,11.60
2023-04-17T09:32:16.032Z,11.80
2023-04-17T09:35:04.946Z,11.80
2023-04-17T09:37:54.112Z,11.70
2023-04-17T09:40:42.262Z,11.90
2023-04-17T09:43:43.223Z,12.10
2023-04-17T09:46:40.637Z,12.10
2023-04-17T09:49:50.197Z,11.90
2023-04-17T09:52:36.816Z,12.00
2023-04-17T09:55:30.128Z,12.10
2023-04-17T09:58:17.780Z,12.10
2023-04-17T10:01:05.348Z,12.20
2023-04-17T10:03:51.959Z,12.40
2023-04-17T10:06:38.286Z,12.40
2023-04-17T10:09:24.923Z,12.70
2023-04-17T10:12:14.003Z,12.80
2023-04-17T10:15:00.693Z,12.90
2023-04-17T10:17:47.320Z,12.90
2023-04-17T10:20:35.445Z,13.00
2023-04-17T10:23:32.917Z,13.10
2023-04-17T10:26:25.388Z,13.10
2023-04-17T10:29:12.807Z,12.90
2023-04-17T10:32:11.401Z,12.80
2023-04-17T10:35:00.792Z,12.70
2023-04-17T10:37:47.352Z,12.60
2023-04-17T10:40:37.602Z,12.40
2023-04-17T10:43:23.742Z,12.50
2023-04-17T10:46:12.720Z,12.50
2023-04-17T10:48:59.333Z,12.40
2023-04-17T10:51:45.712Z,12.30
2023-04-17T10:54:32.872Z,12.20
2023-04-17T10:57:57.558Z,12.20
2023-04-17T11:00:51.825Z,12.20
2023-04-17T11:03:39.036Z,12.30
2023-04-17T11:06:31.339Z,12.60
2023-04-17T11:09:20.901Z,12.80
2023-04-17T11:12:07.044Z,13.10
2023-04-17T11:14:53.070Z,13.20
2023-04-17T11:17:48.796Z,13.30
2023-04-17T11:20:40.298Z,13.30
2023-04-17T11:23:33.528Z,13.20
2023-04-17T11:26:23.535Z,13.00
2023-04-17T11:29:21.018Z,12.90
2023-04-17T11:32:11.308Z,13.00
2023-04-17T11:34:57.946Z,13.20
2023-04-17T11:38:07.098Z,13.50
2023-04-17T11:40:55.763Z,13.80
2023-04-17T11:43:41.862Z,13.90
2023-04-17T11:46:29.842Z,14.00
2023-04-17T11:49:16.177Z,14.00
2023-04-17T11:52:04.405Z,13.90
2023-04-17T11:54:57.944Z,13.80
2023-04-17T11:57:44.261Z,14.20
2023-04-17T12:00:30.555Z,14.90
2023-04-17T12:03:34.422Z,15.80
2023-04-17T12:06:22.110Z,16.80
2023-04-17T12:09:20.829Z,17.30
2023-04-17T12:12:08.105Z,18.00
2023-04-17T12:14:54.436Z,18.10
2023-04-17T12:17:41.457Z,17.40
2023-04-17T12:20:27.617Z,16.80
2023-04-17T12:23:13.711Z,16.30
2023-04-17T12:25:59.878Z,15.90
2023-04-17T12:28:45.903Z,16.00
2023-04-17T12:31:31.564Z,16.30
2023-04-17T12:34:17.579Z,16.40
2023-04-17T12:37:03.440Z,16.80
2023-04-17T12:39:49.319Z,17.00
2023-04-17T12:42:46.200Z,16.90
2023-04-17T12:45:34.408Z,16.40
2023-04-17T12:48:20.515Z,16.30
2023-04-17T12:51:06.980Z,16.00
2023-04-17T12:53:53.092Z,16.20
2023-04-17T12:56:38.971Z,16.90
2023-04-17T12:59:24.999Z,17.40
2023-04-17T13:02:11.339Z,18.40
2023-04-17T13:04:57.565Z,19.30
2023-04-17T13:07:43.956Z,20.10
2023-04-17T13:10:30.116Z,20.70
2023-04-17T13:13:16.187Z,21.10
2023-04-17T13:16:02.175Z,21.00
2023-04-17T13:18:48.102Z,21.10
2023-04-17T13:21:33.990Z,21.00
2023-04-17T13:24:20.444Z,20.80
2023-04-17T13:27:06.650Z,20.80
2023-04-17T13:29:54.249Z,20.90
2023-04-17T13:32:40.652Z,21.00
2023-04-17T13:35:26.892Z,20.80
2023-04-17T13:38:12.730Z,20.60
2023-04-17T13:40:58.781Z,19.70
2023-04-17T13:43:45.200Z,18.90
2023-04-17T13:46:32.977Z,18.80
2023-04-17T13:49:19.237Z,19.10
2023-04-17T13:52:06.658Z,19.90
2023-04-17T13:54:52.895Z,20.00
2023-04-17T13:57:38.997Z,20.10
2023-04-17T14:00:25.489Z,20.00
2023-04-17T14:03:11.831Z,19.60
2023-04-17T14:05:58.216Z,19.50
2023-04-17T14:08:45.457Z,19.40
2023-04-17T14:11:31.634Z,19.40
2023-04-17T14:14:17.811Z,19.00
2023-04-17T14:17:04.196Z,18.20
2023-04-17T14:19:50.043Z,17.90
2023-04-17T14:22:35.959Z,18.00
2023-04-17T14:25:22.413Z,18.10
2023-04-17T14:28:08.535Z,18.50
2023-04-17T14:30:54.539Z,18.50
2023-04-17T14:33:40.464Z,19.20
2023-04-17T14:36:27.606Z,19.40
2023-04-17T14:39:14.000Z,19.10
2023-04-17T14:42:02.076Z,19.10
2023-04-17T14:44:48.463Z,19.20
2023-04-17T14:47:34.503Z,18.60
2023-04-17T14:50:20.509Z,17.70
2023-04-17T14:53:06.639Z,17.30
2023-04-17T14:55:53.066Z,17.10
2023-04-17T14:58:39.069Z,17.40
2023-04-17T15:01:25.277Z,18.00
2023-04-17T15:04:12.002Z,18.00
2023-04-17T15:06:58.057Z,17.50
2023-04-17T15:09:44.311Z,16.50
2023-04-17T15:12:30.218Z,15.60
2023-04-17T15:15:16.345Z,14.90
2023-04-17T15:18:02.332Z,14.50
2023-04-17T15:20:48.382Z,14.00
2023-04-17T15:23:35.459Z,13.70
2023-04-17T15:26:21.861Z,13.40
2023-04-17T15:29:07.835Z,12.90
2023-04-17T15:31:54.030Z,12.50
2023-04-17T15:34:40.936Z,12.30
2023-04-17T15:37:27.671Z,12.20
2023-04-17T15:40:13.855Z,12.10
2023-04-17T15:43:01.474Z,12.10
2023-04-17T15:45:51.771Z,12.00
2023-04-17T15:48:37.866Z,11.90
2023-04-17T15:51:23.914Z,11.70
2023-04-17T15:54:12.009Z,11.40
2023-04-17T15:56:58.937Z,11.10
2023-04-17T15:59:45.298Z,10.90
2023-04-17T16:02:31.526Z,10.70
2023-04-17T16:05:18.348Z,10.60
2023-04-17T16:08:04.656Z,10.50
2023-04-17T16:10:51.689Z,10.50
2023-04-17T16:13:37.798Z,10.40
2023-04-17T16:16:23.903Z,10.40
2023-04-17T16:19:10.910Z,10.40
2023-04-17T16:21:57.738Z,10.40
2023-04-17T16:24:43.923Z,10.40
2023-04-17T16:27:30.260Z,10.40
2023-04-17T16:30:16.312Z,10.40
2023-04-17T16:33:02.796Z,10.50
2023-04-17T16:35:48.775Z,10.50
2023-04-17T16:38:35.782Z,10.50
2023-04-17T16:41:21.762Z,10.50
2023-04-17T16:44:07.508Z,10.60
2023-04-17T16:49:44.336Z,10.60
2023-04-17T16:52:30.378Z,10.60
2023-04-17T16:55:17.044Z,10.60
2023-04-17T16:58:04.396Z,10.70
2023-04-17T17:00:51.197Z,10.70
2023-04-17T17:03:40.040Z,10.70
2023-04-17T17:06:26.873Z,10.70
2023-04-17T17:09:13.519Z,10.70
2023-04-17T17:11:59.664Z,10.80
2023-04-17T17:14:45.629Z,10.70
2023-04-17T17:17:31.692Z,10.70
2023-04-17T17:20:19.290Z,10.70
2023-04-17T17:23:05.487Z,10.70
2023-04-17T17:25:51.551Z,10.60
2023-04-17T17:28:37.657Z,10.60
2023-04-17T17:31:23.980Z,10.70
2023-04-17T17:34:25.507Z,10.60
2023-04-17T17:37:12.651Z,10.60
2023-04-17T17:39:58.713Z,10.60
2023-04-17T17:42:45.240Z,10.70
2023-04-17T17:45:31.456Z,10.60
2023-04-17T17:48:20.548Z,10.60
2023-04-17T17:51:07.072Z,10.60
2023-04-17T17:53:52.857Z,10.60
2023-04-17T17:56:38.819Z,10.60
2023-04-17T17:59:24.945Z,10.50
2023-04-17T18:02:11.187Z,10.40
2023-04-17T18:04:57.737Z,10.40
2023-04-17T18:07:44.097Z,10.50
2023-04-17T18:10:30.450Z,10.50
2023-04-17T18:13:16.356Z,10.60
2023-04-17T18:16:05.666Z,10.60
2023-04-17T18:18:51.884Z,10.60
2023-04-17T18:21:38.247Z,10.60
2023-04-17T18:24:24.543Z,10.50
2023-04-17T18:27:10.836Z,10.50
2023-04-17T18:29:57.920Z,10.40
2023-04-17T18:32:43.919Z,10.50
2023-04-17T18:35:30.231Z,10.40
2023-04-17T18:38:16.751Z,10.40
2023-04-17T18:41:02.675Z,10.40
2023-04-17T18:43:49.061Z,10.40
2023-04-17T18:46:35.326Z,10.30
2023-04-17T18:49:21.701Z,10.20
2023-04-17T18:52:07.748Z,10.20
2023-04-17T18:54:53.789Z,10.10
2023-04-17T18:57:39.787Z,10.10
2023-04-17T19:00:26.235Z,10.00
2023-04-17T19:03:12.504Z,9.90
2023-04-17T19:05:58.267Z,10.00
2023-04-17T19:08:44.250Z,9.90
2023-04-17T19:11:31.016Z,9.80
2023-04-17T19:14:17.243Z,9.80
2023-04-17T19:17:03.177Z,9.80
2023-04-17T19:19:49.024Z,9.90
2023-04-17T19:22:35.254Z,9.90
2023-04-17T19:25:21.500Z,9.80
2023-04-17T19:28:07.731Z,9.80
2023-04-17T19:30:53.938Z,9.90
2023-04-17T19:33:40.176Z,9.80
2023-04-17T19:36:27.490Z,9.80
2023-04-17T19:39:14.298Z,9.70
2023-04-17T19:42:01.436Z,9.70
2023-04-17T19:44:47.425Z,9.60
2023-04-17T19:47:33.396Z,9.60
2023-04-17T19:50:19.988Z,9.60
2023-04-17T19:53:05.885Z,9.60
2023-04-17T19:55:51.968Z,9.60
2023-04-17T19:58:38.692Z,9.60
2023-04-17T20:01:24.920Z,9.60
2023-04-17T20:04:11.345Z,9.50
2023-04-17T20:06:58.854Z,9.60
2023-04-17T20:09:44.939Z,9.60
2023-04-17T20:12:31.234Z,9.60
2023-04-17T20:15:21.937Z,9.60
2023-04-17T20:18:10.647Z,9.60
2023-04-17T20:20:56.967Z,9.60
2023-04-17T20:23:43.630Z,9.60
2023-04-17T20:26:29.654Z,9.60
2023-04-17T20:29:15.785Z,9.60
2023-04-17T20:32:03.925Z,9.50
2023-04-17T20:34:50.452Z,9.60
2023-04-17T20:37:37.133Z,9.60
2023-04-17T20:40:23.288Z,9.60
2023-04-17T20:43:09.225Z,9.60
2023-04-17T20:45:55.500Z,9.60
2023-04-17T20:48:41.751Z,9.60
2023-04-17T20:51:29.256Z,9.60
2023-04-17T20:54:15.941Z,9.60
2023-04-17T20:57:02.092Z,9.60
2023-04-17T20:59:48.229Z,9.60
2023-04-17T21:02:34.542Z,9.50
2023-04-17T21:05:20.942Z,9.60
2023-04-17T21:08:07.175Z,9.50
2023-04-17T21:10:53.507Z,9.50
2023-04-17T21:13:39.737Z,9.60
2023-04-17T21:16:26.488Z,9.60
2023-04-17T21:19:14.206Z,9.60
2023-04-17T21:22:00.362Z,9.60
2023-04-17T21:24:46.302Z,9.50
2023-04-17T21:27:32.548Z,9.60
2023-04-17T21:30:18.654Z,9.50
2023-04-17T21:33:05.044Z,9.50
2023-04-17T21:35:51.357Z,9.50
2023-04-17T21:38:37.195Z,9.50
2023-04-17T21:41:23.350Z,9.50
2023-04-17T21:44:10.632Z,9.50
2023-04-17T21:46:57.446Z,9.50
2023-04-17T21:49:47.018Z,9.40
2023-04-17T21:52:33.565Z,9.40
2023-04-17T21:55:19.514Z,9.40
2023-04-17T21:58:05.562Z,9.40
2023-04-17T22:00:51.761Z,9.40
2023-04-17T22:03:37.622Z,9.30
2023-04-17T22:06:24.155Z,9.30
2023-04-17T22:09:10.378Z,9.30
2023-04-17T22:11:57.182Z,9.40
2023-04-17T22:14:43.275Z,9.30
2023-04-17T22:17:29.192Z,9.30
2023-04-17T22:20:15.363Z,9.30
2023-04-17T22:23:01.686Z,9.30
2023-04-17T22:25:47.653Z,9.30
2023-04-17T22:28:33.618Z,9.30
2023-04-17T22:31:21.023Z,9.30
2023-04-17T22:34:07.328Z,9.30
2023-04-17T22:36:53.231Z,9.30
2023-04-17T22:39:39.254Z,9.20
2023-04-17T22:42:25.270Z,9.20
2023-04-17T22:45:11.224Z,9.20
2023-04-17T22:47:57.174Z,9.20
2023-04-17T22:50:43.752Z,9.10
2023-04-17T22:53:29.972Z,9.10
2023-04-17T22:56:15.695Z,9.10
2023-04-17T22:59:01.637Z,9.10
2023-04-17T23:01:47.693Z,9.10
2023-04-17T23:04:33.771Z,9.10
2023-04-17T23:07:20.681Z,9.10
2023-04-17T23:10:07.028Z,9.10
2023-04-17T23:12:53.014Z,9.00
2023-04-17T23:15:39.369Z,9.00
2023-04-17T23:18:25.630Z,9.00
2023-04-17T23:21:11.814Z,9.00
2023-04-17T23:23:57.616Z,8.90
2023-04-17T23:26:43.793Z,8.90
2023-04-17T23:29:30.215Z,8.90
2023-04-17T23:32:16.635Z,8.90
2023-04-17T23:35:02.523Z,8.80
2023-04-17T23:37:48.842Z,8.80
2023-04-17T23:40:35.836Z,8.80
2023-04-17T23:43:22.025Z,8.70
2023-04-17T23:46:09.874Z,8.70
2023-04-17T23:48:56.142Z,8.70
2023-04-17T23:51:41.944Z,8.70
2023-04-17T23:54:28.006Z,8.60
2023-04-17T23:57:14.024Z,8.60
2023-04-17T23:59:59.941Z,8.60
